sensor_id;sensor_type;location;lat;lon;timestamp;P1;durP1;ratioP1;P2;durP2;ratioP2
72584;SDS011;60618;40.084;32.908;2022-12-07T00:01:13;24.75;;;11.07;;
72584;SDS011;60618;40.084;32.908;2022-12-07T00:03:43;26.20;;;11.50;;
72584;SDS011;60618;40.084;32.908;2022-12-07T00:06:12;24.90;;;11.00;;
72584;SDS011;60618;40.084;32.908;2022-12-07T00:08:40;22.67;;;10.57;;
72584;SDS011;60618;40.084;32.908;2022-12-07T00:11:16;22.70;;;10.40;;
72584;SDS011;60618;40.084;32.908;2022-12-07T00:13:45;22.98;;;8.75;;
72584;SDS011;60618;40.084;32.908;2022-12-07T00:16:18;17.25;;;7.30;;
72584;SDS011;60618;40.084;32.908;2022-12-07T00:18:46;13.57;;;6.28;;
72584;SDS011;60618;40.084;32.908;2022-12-07T00:21:24;13.80;;;5.15;;
72584;SDS011;60618;40.084;32.908;2022-12-07T00:23:54;11.53;;;4.93;;
72584;SDS011;60618;40.084;32.908;2022-12-07T00:26:28;11.32;;;4.43;;
72584;SDS011;60618;40.084;32.908;2022-12-07T00:28:57;14.05;;;6.15;;
72584;SDS011;60618;40.084;32.908;2022-12-07T00:31:28;13.98;;;5.30;;
72584;SDS011;60618;40.084;32.908;2022-12-07T00:33:57;14.70;;;6.53;;
72584;SDS011;60618;40.084;32.908;2022-12-07T00:36:24;11.17;;;5.40;;
72584;SDS011;60618;40.084;32.908;2022-12-07T00:38:56;11.93;;;5.15;;
72584;SDS011;60618;40.084;32.908;2022-12-07T00:41:25;10.45;;;4.13;;
72584;SDS011;60618;40.084;32.908;2022-12-07T00:43:53;9.32;;;4.60;;
72584;SDS011;60618;40.084;32.908;2022-12-07T00:46:20;14.60;;;6.57;;
72584;SDS011;60618;40.084;32.908;2022-12-07T00:48:48;14.33;;;6.73;;
72584;SDS011;60618;40.084;32.908;2022-12-07T00:51:16;12.45;;;5.15;;
72584;SDS011;60618;40.084;32.908;2022-12-07T00:53:44;8.45;;;3.75;;
72584;SDS011;60618;40.084;32.908;2022-12-07T00:56:16;7.70;;;3.38;;
72584;SDS011;60618;40.084;32.908;2022-12-07T00:58:48;8.45;;;3.53;;
72584;SDS011;60618;40.084;32.908;2022-12-07T01:01:16;7.90;;;2.93;;
72584;SDS011;60618;40.084;32.908;2022-12-07T01:03:43;7.22;;;3.05;;
72584;SDS011;60618;40.084;32.908;2022-12-07T01:06:13;7.72;;;3.38;;
72584;SDS011;60618;40.084;32.908;2022-12-07T01:08:41;9.15;;;3.88;;
72584;SDS011;60618;40.084;32.908;2022-12-07T01:11:09;9.30;;;4.30;;
72584;SDS011;60618;40.084;32.908;2022-12-07T01:13:40;12.20;;;5.93;;
72584;SDS011;60618;40.084;32.908;2022-12-07T01:16:08;17.20;;;8.43;;
72584;SDS011;60618;40.084;32.908;2022-12-07T01:18:38;18.02;;;8.40;;
72584;SDS011;60618;40.084;32.908;2022-12-07T01:21:07;18.85;;;9.10;;
72584;SDS011;60618;40.084;32.908;2022-12-07T01:23:37;20.23;;;9.30;;
72584;SDS011;60618;40.084;32.908;2022-12-07T01:26:06;20.07;;;9.13;;
72584;SDS011;60618;40.084;32.908;2022-12-07T01:28:35;19.27;;;8.63;;
72584;SDS011;60618;40.084;32.908;2022-12-07T01:31:09;17.92;;;8.23;;
72584;SDS011;60618;40.084;32.908;2022-12-07T01:33:39;20.25;;;8.20;;
72584;SDS011;60618;40.084;32.908;2022-12-07T01:38:34;20.60;;;8.87;;
72584;SDS011;60618;40.084;32.908;2022-12-07T01:41:01;20.52;;;9.15;;
72584;SDS011;60618;40.084;32.908;2022-12-07T01:43:29;23.25;;;9.80;;
72584;SDS011;60618;40.084;32.908;2022-12-07T01:45:57;22.15;;;9.63;;
72584;SDS011;60618;40.084;32.908;2022-12-07T01:48:32;21.60;;;10.25;;
72584;SDS011;60618;40.084;32.908;2022-12-07T01:51:00;20.13;;;8.50;;
72584;SDS011;60618;40.084;32.908;2022-12-07T01:53:31;22.25;;;9.73;;
72584;SDS011;60618;40.084;32.908;2022-12-07T01:56:02;22.55;;;9.88;;
72584;SDS011;60618;40.084;32.908;2022-12-07T01:58:29;24.13;;;9.23;;
72584;SDS011;60618;40.084;32.908;2022-12-07T02:00:57;23.27;;;9.82;;
72584;SDS011;60618;40.084;32.908;2022-12-07T02:03:27;20.17;;;9.10;;
72584;SDS011;60618;40.084;32.908;2022-12-07T02:06:04;15.60;;;6.88;;
72584;SDS011;60618;40.084;32.908;2022-12-07T02:08:33;15.15;;;5.97;;
72584;SDS011;60618;40.084;32.908;2022-12-07T02:11:00;14.43;;;6.70;;
72584;SDS011;60618;40.084;32.908;2022-12-07T02:13:30;11.52;;;6.07;;
72584;SDS011;60618;40.084;32.908;2022-12-07T02:16:09;15.37;;;6.90;;
72584;SDS011;60618;40.084;32.908;2022-12-07T02:18:57;17.65;;;7.43;;
72584;SDS011;60618;40.084;32.908;2022-12-07T02:34:50;15.43;;;6.28;;
72584;SDS011;60618;40.084;32.908;2022-12-07T02:37:39;17.80;;;6.90;;
72584;SDS011;60618;40.084;32.908;2022-12-07T02:40:18;10.82;;;4.97;;
72584;SDS011;60618;40.084;32.908;2022-12-07T02:42:50;10.93;;;4.27;;
72584;SDS011;60618;40.084;32.908;2022-12-07T02:45:22;10.50;;;4.07;;
72584;SDS011;60618;40.084;32.908;2022-12-07T02:47:51;12.30;;;5.15;;
72584;SDS011;60618;40.084;32.908;2022-12-07T02:50:22;10.00;;;4.60;;
72584;SDS011;60618;40.084;32.908;2022-12-07T02:52:49;10.70;;;4.22;;
72584;SDS011;60618;40.084;32.908;2022-12-07T02:55:17;9.47;;;4.27;;
72584;SDS011;60618;40.084;32.908;2022-12-07T02:58:00;9.88;;;4.60;;
72584;SDS011;60618;40.084;32.908;2022-12-07T03:01:04;11.25;;;4.97;;
72584;SDS011;60618;40.084;32.908;2022-12-07T03:03:43;14.43;;;6.10;;
72584;SDS011;60618;40.084;32.908;2022-12-07T03:06:20;18.23;;;8.93;;
72584;SDS011;60618;40.084;32.908;2022-12-07T03:09:27;17.33;;;7.93;;
72584;SDS011;60618;40.084;32.908;2022-12-07T03:12:08;16.77;;;6.93;;
72584;SDS011;60618;40.084;32.908;2022-12-07T03:14:52;16.60;;;7.43;;
72584;SDS011;60618;40.084;32.908;2022-12-07T03:17:28;13.85;;;5.35;;
72584;SDS011;60618;40.084;32.908;2022-12-07T03:20:00;12.00;;;5.03;;
72584;SDS011;60618;40.084;32.908;2022-12-07T03:22:30;10.50;;;4.00;;
72584;SDS011;60618;40.084;32.908;2022-12-07T03:25:03;11.50;;;4.97;;
72584;SDS011;60618;40.084;32.908;2022-12-07T03:27:44;10.48;;;4.45;;
72584;SDS011;60618;40.084;32.908;2022-12-07T03:30:20;8.73;;;3.67;;
72584;SDS011;60618;40.084;32.908;2022-12-07T03:35:33;21.63;;;9.43;;
72584;SDS011;60618;40.084;32.908;2022-12-07T03:40:49;10.77;;;4.68;;
72584;SDS011;60618;40.084;32.908;2022-12-07T03:43:24;10.23;;;4.68;;
72584;SDS011;60618;40.084;32.908;2022-12-07T03:46:03;11.57;;;4.88;;
72584;SDS011;60618;40.084;32.908;2022-12-07T03:51:22;15.45;;;5.50;;
72584;SDS011;60618;40.084;32.908;2022-12-07T03:53:59;13.40;;;4.50;;
72584;SDS011;60618;40.084;32.908;2022-12-07T03:56:34;16.50;;;5.80;;
72584;SDS011;60618;40.084;32.908;2022-12-07T03:59:02;14.98;;;5.70;;
72584;SDS011;60618;40.084;32.908;2022-12-07T04:01:29;12.17;;;5.67;;
72584;SDS011;60618;40.084;32.908;2022-12-07T04:03:56;10.10;;;3.95;;
72584;SDS011;60618;40.084;32.908;2022-12-07T04:06:22;12.93;;;5.43;;
72584;SDS011;60618;40.084;32.908;2022-12-07T04:08:49;12.60;;;5.60;;
72584;SDS011;60618;40.084;32.908;2022-12-07T04:11:16;18.13;;;7.68;;
72584;SDS011;60618;40.084;32.908;2022-12-07T04:13:43;16.60;;;7.20;;
72584;SDS011;60618;40.084;32.908;2022-12-07T04:16:10;17.45;;;7.05;;
72584;SDS011;60618;40.084;32.908;2022-12-07T04:18:37;13.80;;;6.40;;
72584;SDS011;60618;40.084;32.908;2022-12-07T04:21:03;15.43;;;6.53;;
72584;SDS011;60618;40.084;32.908;2022-12-07T04:23:30;16.23;;;5.70;;
72584;SDS011;60618;40.084;32.908;2022-12-07T04:25:57;12.30;;;4.60;;
72584;SDS011;60618;40.084;32.908;2022-12-07T04:28:24;9.18;;;4.10;;
72584;SDS011;60618;40.084;32.908;2022-12-07T04:30:51;9.77;;;4.47;;
72584;SDS011;60618;40.084;32.908;2022-12-07T04:33:18;8.02;;;3.72;;
72584;SDS011;60618;40.084;32.908;2022-12-07T04:35:45;9.98;;;4.15;;
72584;SDS011;60618;40.084;32.908;2022-12-07T04:38:12;11.50;;;5.10;;
72584;SDS011;60618;40.084;32.908;2022-12-07T04:40:38;11.50;;;5.60;;
72584;SDS011;60618;40.084;32.908;2022-12-07T04:43:05;12.50;;;5.90;;
72584;SDS011;60618;40.084;32.908;2022-12-07T04:45:32;15.48;;;6.90;;
72584;SDS011;60618;40.084;32.908;2022-12-07T04:47:59;14.05;;;6.07;;
72584;SDS011;60618;40.084;32.908;2022-12-07T04:50:26;14.27;;;6.87;;
72584;SDS011;60618;40.084;32.908;2022-12-07T04:52:53;16.50;;;6.75;;
72584;SDS011;60618;40.084;32.908;2022-12-07T04:55:20;15.13;;;6.30;;
72584;SDS011;60618;40.084;32.908;2022-12-07T04:57:47;12.95;;;6.32;;
72584;SDS011;60618;40.084;32.908;2022-12-07T05:00:13;15.13;;;6.50;;
72584;SDS011;60618;40.084;32.908;2022-12-07T05:02:41;19.20;;;7.23;;
72584;SDS011;60618;40.084;32.908;2022-12-07T05:05:07;15.95;;;6.70;;
72584;SDS011;60618;40.084;32.908;2022-12-07T05:07:34;15.30;;;6.82;;
72584;SDS011;60618;40.084;32.908;2022-12-07T05:10:01;18.35;;;7.40;;
72584;SDS011;60618;40.084;32.908;2022-12-07T05:12:28;18.13;;;7.55;;
72584;SDS011;60618;40.084;32.908;2022-12-07T05:14:55;22.23;;;7.63;;
72584;SDS011;60618;40.084;32.908;2022-12-07T05:17:22;18.27;;;7.47;;
72584;SDS011;60618;40.084;32.908;2022-12-07T05:19:49;22.02;;;7.57;;
72584;SDS011;60618;40.084;32.908;2022-12-07T05:22:16;16.65;;;7.45;;
72584;SDS011;60618;40.084;32.908;2022-12-07T05:24:43;25.55;;;8.38;;
72584;SDS011;60618;40.084;32.908;2022-12-07T05:27:10;21.00;;;8.60;;
72584;SDS011;60618;40.084;32.908;2022-12-07T05:29:37;23.10;;;8.98;;
72584;SDS011;60618;40.084;32.908;2022-12-07T05:32:04;20.85;;;9.30;;
72584;SDS011;60618;40.084;32.908;2022-12-07T05:34:31;24.58;;;10.63;;
72584;SDS011;60618;40.084;32.908;2022-12-07T05:36:58;29.50;;;11.43;;
72584;SDS011;60618;40.084;32.908;2022-12-07T05:39:25;27.00;;;11.63;;
72584;SDS011;60618;40.084;32.908;2022-12-07T05:41:51;31.67;;;12.98;;
72584;SDS011;60618;40.084;32.908;2022-12-07T05:44:18;32.72;;;14.55;;
72584;SDS011;60618;40.084;32.908;2022-12-07T05:46:45;32.72;;;14.90;;
72584;SDS011;60618;40.084;32.908;2022-12-07T05:49:12;35.90;;;15.50;;
72584;SDS011;60618;40.084;32.908;2022-12-07T05:51:40;30.63;;;13.00;;
72584;SDS011;60618;40.084;32.908;2022-12-07T05:54:07;31.90;;;12.65;;
72584;SDS011;60618;40.084;32.908;2022-12-07T05:56:34;31.38;;;13.15;;
72584;SDS011;60618;40.084;32.908;2022-12-07T05:59:01;29.17;;;12.15;;
72584;SDS011;60618;40.084;32.908;2022-12-07T06:01:28;21.70;;;10.05;;
72584;SDS011;60618;40.084;32.908;2022-12-07T06:03:55;35.10;;;12.87;;
72584;SDS011;60618;40.084;32.908;2022-12-07T06:06:21;37.13;;;15.68;;
72584;SDS011;60618;40.084;32.908;2022-12-07T06:08:49;36.35;;;16.83;;
72584;SDS011;60618;40.084;32.908;2022-12-07T06:11:16;35.97;;;15.60;;
72584;SDS011;60618;40.084;32.908;2022-12-07T06:13:42;34.97;;;16.08;;
72584;SDS011;60618;40.084;32.908;2022-12-07T06:16:12;37.13;;;16.80;;
72584;SDS011;60618;40.084;32.908;2022-12-07T06:18:41;39.85;;;17.48;;
72584;SDS011;60618;40.084;32.908;2022-12-07T06:21:08;42.75;;;18.35;;
72584;SDS011;60618;40.084;32.908;2022-12-07T06:23:35;40.55;;;17.10;;
72584;SDS011;60618;40.084;32.908;2022-12-07T06:26:01;52.35;;;20.20;;
72584;SDS011;60618;40.084;32.908;2022-12-07T06:28:28;62.87;;;23.57;;
72584;SDS011;60618;40.084;32.908;2022-12-07T06:30:59;59.67;;;24.58;;
72584;SDS011;60618;40.084;32.908;2022-12-07T06:33:27;57.25;;;22.80;;
72584;SDS011;60618;40.084;32.908;2022-12-07T06:35:55;56.42;;;21.33;;
72584;SDS011;60618;40.084;32.908;2022-12-07T06:38:22;58.33;;;22.25;;
72584;SDS011;60618;40.084;32.908;2022-12-07T06:40:49;56.73;;;21.73;;
72584;SDS011;60618;40.084;32.908;2022-12-07T06:43:15;53.45;;;22.52;;
72584;SDS011;60618;40.084;32.908;2022-12-07T06:45:42;46.95;;;20.27;;
72584;SDS011;60618;40.084;32.908;2022-12-07T06:48:09;46.35;;;19.30;;
72584;SDS011;60618;40.084;32.908;2022-12-07T06:50:37;43.33;;;19.42;;
72584;SDS011;60618;40.084;32.908;2022-12-07T06:53:04;39.07;;;19.10;;
72584;SDS011;60618;40.084;32.908;2022-12-07T06:55:30;47.97;;;19.42;;
72584;SDS011;60618;40.084;32.908;2022-12-07T06:57:57;44.53;;;21.00;;
72584;SDS011;60618;40.084;32.908;2022-12-07T07:00:24;50.05;;;20.13;;
72584;SDS011;60618;40.084;32.908;2022-12-07T07:02:51;50.72;;;20.45;;
72584;SDS011;60618;40.084;32.908;2022-12-07T07:05:18;44.23;;;19.93;;
72584;SDS011;60618;40.084;32.908;2022-12-07T07:07:45;45.00;;;18.67;;
72584;SDS011;60618;40.084;32.908;2022-12-07T07:10:32;39.40;;;18.90;;
72584;SDS011;60618;40.084;32.908;2022-12-07T07:12:59;48.47;;;19.33;;
72584;SDS011;60618;40.084;32.908;2022-12-07T07:15:26;44.25;;;19.70;;
72584;SDS011;60618;40.084;32.908;2022-12-07T07:17:53;38.33;;;17.80;;
72584;SDS011;60618;40.084;32.908;2022-12-07T07:20:20;48.83;;;19.75;;
72584;SDS011;60618;40.084;32.908;2022-12-07T07:22:47;40.92;;;18.90;;
72584;SDS011;60618;40.084;32.908;2022-12-07T07:25:14;43.83;;;18.77;;
72584;SDS011;60618;40.084;32.908;2022-12-07T07:27:42;44.70;;;18.98;;
72584;SDS011;60618;40.084;32.908;2022-12-07T07:30:09;40.63;;;18.10;;
72584;SDS011;60618;40.084;32.908;2022-12-07T07:32:36;44.58;;;19.25;;
72584;SDS011;60618;40.084;32.908;2022-12-07T07:35:03;45.95;;;19.75;;
72584;SDS011;60618;40.084;32.908;2022-12-07T07:37:30;46.38;;;18.90;;
72584;SDS011;60618;40.084;32.908;2022-12-07T07:39:57;44.10;;;18.83;;
72584;SDS011;60618;40.084;32.908;2022-12-07T07:42:24;41.17;;;19.03;;
72584;SDS011;60618;40.084;32.908;2022-12-07T07:44:51;47.83;;;19.17;;
72584;SDS011;60618;40.084;32.908;2022-12-07T07:47:18;43.30;;;18.40;;
72584;SDS011;60618;40.084;32.908;2022-12-07T07:49:44;44.53;;;20.15;;
72584;SDS011;60618;40.084;32.908;2022-12-07T07:52:13;41.63;;;18.88;;
72584;SDS011;60618;40.084;32.908;2022-12-07T07:54:40;40.73;;;18.43;;
72584;SDS011;60618;40.084;32.908;2022-12-07T07:57:07;43.25;;;19.58;;
72584;SDS011;60618;40.084;32.908;2022-12-07T07:59:34;42.92;;;19.75;;
72584;SDS011;60618;40.084;32.908;2022-12-07T08:02:01;37.30;;;19.08;;
72584;SDS011;60618;40.084;32.908;2022-12-07T08:04:28;46.05;;;20.02;;
72584;SDS011;60618;40.084;32.908;2022-12-07T08:06:55;46.43;;;20.70;;
72584;SDS011;60618;40.084;32.908;2022-12-07T08:09:23;44.60;;;21.15;;
72584;SDS011;60618;40.084;32.908;2022-12-07T08:11:50;48.42;;;22.30;;
72584;SDS011;60618;40.084;32.908;2022-12-07T08:14:17;51.30;;;22.52;;
72584;SDS011;60618;40.084;32.908;2022-12-07T08:16:44;51.17;;;22.27;;
72584;SDS011;60618;40.084;32.908;2022-12-07T08:19:10;48.80;;;20.43;;
72584;SDS011;60618;40.084;32.908;2022-12-07T08:21:37;41.47;;;19.55;;
72584;SDS011;60618;40.084;32.908;2022-12-07T08:24:04;39.88;;;16.90;;
72584;SDS011;60618;40.084;32.908;2022-12-07T08:26:31;42.88;;;18.98;;
72584;SDS011;60618;40.084;32.908;2022-12-07T08:28:58;42.25;;;19.73;;
72584;SDS011;60618;40.084;32.908;2022-12-07T08:31:25;42.43;;;19.90;;
72584;SDS011;60618;40.084;32.908;2022-12-07T08:33:52;43.67;;;19.13;;
72584;SDS011;60618;40.084;32.908;2022-12-07T08:36:19;37.15;;;15.55;;
72584;SDS011;60618;40.084;32.908;2022-12-07T08:38:46;38.95;;;15.68;;
72584;SDS011;60618;40.084;32.908;2022-12-07T08:41:33;49.55;;;14.63;;
72584;SDS011;60618;40.084;32.908;2022-12-07T08:44:00;34.10;;;13.47;;
72584;SDS011;60618;40.084;32.908;2022-12-07T08:49:10;29.13;;;13.27;;
72584;SDS011;60618;40.084;32.908;2022-12-07T08:51:38;29.02;;;13.35;;
72584;SDS011;60618;40.084;32.908;2022-12-07T08:54:06;23.38;;;11.20;;
72584;SDS011;60618;40.084;32.908;2022-12-07T08:56:35;23.77;;;10.20;;
72584;SDS011;60618;40.084;32.908;2022-12-07T08:59:03;20.27;;;10.10;;
72584;SDS011;60618;40.084;32.908;2022-12-07T09:01:30;23.42;;;10.90;;
72584;SDS011;60618;40.084;32.908;2022-12-07T09:03:57;18.60;;;8.90;;
72584;SDS011;60618;40.084;32.908;2022-12-07T09:06:24;27.55;;;9.32;;
72584;SDS011;60618;40.084;32.908;2022-12-07T09:08:53;38.27;;;9.60;;
72584;SDS011;60618;40.084;32.908;2022-12-07T09:11:23;18.15;;;8.38;;
72584;SDS011;60618;40.084;32.908;2022-12-07T09:13:54;38.70;;;9.63;;
72584;SDS011;60618;40.084;32.908;2022-12-07T09:16:21;16.55;;;8.60;;
72584;SDS011;60618;40.084;32.908;2022-12-07T09:18:48;17.52;;;8.43;;
72584;SDS011;60618;40.084;32.908;2022-12-07T09:21:15;18.87;;;8.90;;
72584;SDS011;60618;40.084;32.908;2022-12-07T09:23:42;18.00;;;9.00;;
72584;SDS011;60618;40.084;32.908;2022-12-07T09:26:09;18.48;;;8.95;;
72584;SDS011;60618;40.084;32.908;2022-12-07T09:28:36;19.73;;;8.30;;
72584;SDS011;60618;40.084;32.908;2022-12-07T09:31:04;21.08;;;9.10;;
72584;SDS011;60618;40.084;32.908;2022-12-07T09:33:53;16.40;;;7.80;;
72584;SDS011;60618;40.084;32.908;2022-12-07T09:36:27;18.10;;;9.10;;
72584;SDS011;60618;40.084;32.908;2022-12-07T09:38:55;16.52;;;7.53;;
72584;SDS011;60618;40.084;32.908;2022-12-07T09:41:22;17.13;;;8.10;;
72584;SDS011;60618;40.084;32.908;2022-12-07T09:43:52;14.50;;;7.38;;
72584;SDS011;60618;40.084;32.908;2022-12-07T09:46:24;16.63;;;7.87;;
72584;SDS011;60618;40.084;32.908;2022-12-07T09:48:52;15.07;;;7.40;;
72584;SDS011;60618;40.084;32.908;2022-12-07T09:51:20;14.80;;;7.68;;
72584;SDS011;60618;40.084;32.908;2022-12-07T09:53:51;29.45;;;12.85;;
72584;SDS011;60618;40.084;32.908;2022-12-07T09:56:19;291.25;;;72.35;;
72584;SDS011;60618;40.084;32.908;2022-12-07T09:58:48;273.63;;;80.90;;
72584;SDS011;60618;40.084;32.908;2022-12-07T10:01:17;243.70;;;89.75;;
72584;SDS011;60618;40.084;32.908;2022-12-07T10:03:55;76.47;;;34.70;;
72584;SDS011;60618;40.084;32.908;2022-12-07T10:06:28;62.25;;;32.85;;
72584;SDS011;60618;40.084;32.908;2022-12-07T10:08:55;19.58;;;9.18;;
72584;SDS011;60618;40.084;32.908;2022-12-07T10:11:22;17.63;;;8.50;;
72584;SDS011;60618;40.084;32.908;2022-12-07T10:13:52;15.48;;;8.50;;
72584;SDS011;60618;40.084;32.908;2022-12-07T10:16:31;15.15;;;8.40;;
72584;SDS011;60618;40.084;32.908;2022-12-07T10:19:11;17.83;;;8.73;;
72584;SDS011;60618;40.084;32.908;2022-12-07T10:22:02;20.15;;;9.32;;
72584;SDS011;60618;40.084;32.908;2022-12-07T10:24:35;18.53;;;9.70;;
72584;SDS011;60618;40.084;32.908;2022-12-07T10:27:03;20.58;;;10.23;;
72584;SDS011;60618;40.084;32.908;2022-12-07T10:29:34;23.27;;;11.38;;
72584;SDS011;60618;40.084;32.908;2022-12-07T10:32:05;27.02;;;10.63;;
72584;SDS011;60618;40.084;32.908;2022-12-07T10:34:59;19.50;;;10.45;;
72584;SDS011;60618;40.084;32.908;2022-12-07T10:37:47;36.73;;;18.60;;
72584;SDS011;60618;40.084;32.908;2022-12-07T10:40:26;24.40;;;11.18;;
72584;SDS011;60618;40.084;32.908;2022-12-07T10:43:03;28.55;;;11.63;;
72584;SDS011;60618;40.084;32.908;2022-12-07T10:45:32;26.98;;;10.77;;
72584;SDS011;60618;40.084;32.908;2022-12-07T10:48:12;27.73;;;12.00;;
72584;SDS011;60618;40.084;32.908;2022-12-07T10:51:07;30.40;;;12.20;;
72584;SDS011;60618;40.084;32.908;2022-12-07T10:53:54;25.75;;;12.48;;
72584;SDS011;60618;40.084;32.908;2022-12-07T11:07:42;25.05;;;13.55;;
72584;SDS011;60618;40.084;32.908;2022-12-07T11:24:16;52.83;;;22.88;;
72584;SDS011;60618;40.084;32.908;2022-12-07T11:41:11;29.25;;;14.52;;
72584;SDS011;60618;40.084;32.908;2022-12-07T11:43:50;45.78;;;17.40;;
72584;SDS011;60618;40.084;32.908;2022-12-07T11:46:18;50.13;;;23.47;;
72584;SDS011;60618;40.084;32.908;2022-12-07T11:48:55;34.78;;;17.40;;
72584;SDS011;60618;40.084;32.908;2022-12-07T11:51:33;38.20;;;18.73;;
72584;SDS011;60618;40.084;32.908;2022-12-07T11:54:15;48.83;;;20.98;;
72584;SDS011;60618;40.084;32.908;2022-12-07T11:56:46;111.40;;;55.95;;
72584;SDS011;60618;40.084;32.908;2022-12-07T11:59:17;93.47;;;46.03;;
72584;SDS011;60618;40.084;32.908;2022-12-07T12:01:53;43.25;;;20.98;;
72584;SDS011;60618;40.084;32.908;2022-12-07T12:04:32;68.93;;;44.42;;
72584;SDS011;60618;40.084;32.908;2022-12-07T12:07:22;36.75;;;18.27;;
72584;SDS011;60618;40.084;32.908;2022-12-07T12:15:51;28.58;;;14.82;;
72584;SDS011;60618;40.084;32.908;2022-12-07T12:21:12;32.72;;;16.60;;
72584;SDS011;60618;40.084;32.908;2022-12-07T12:26:35;29.43;;;15.23;;
72584;SDS011;60618;40.084;32.908;2022-12-07T12:31:46;36.05;;;16.25;;
72584;SDS011;60618;40.084;32.908;2022-12-07T12:34:32;32.28;;;15.52;;
72584;SDS011;60618;40.084;32.908;2022-12-07T12:45:20;46.72;;;19.67;;
72584;SDS011;60618;40.084;32.908;2022-12-07T12:48:02;46.17;;;20.05;;
72584;SDS011;60618;40.084;32.908;2022-12-07T12:50:32;57.70;;;26.65;;
72584;SDS011;60618;40.084;32.908;2022-12-07T13:15:47;47.65;;;16.58;;
72584;SDS011;60618;40.084;32.908;2022-12-07T13:31:40;73.13;;;21.35;;
72584;SDS011;60618;40.084;32.908;2022-12-07T13:39:34;41.65;;;18.38;;
72584;SDS011;60618;40.084;32.908;2022-12-07T13:42:25;63.35;;;26.15;;
72584;SDS011;60618;40.084;32.908;2022-12-07T13:44:54;72.43;;;32.88;;
72584;SDS011;60618;40.084;32.908;2022-12-07T13:49:56;47.97;;;17.95;;
72584;SDS011;60618;40.084;32.908;2022-12-07T13:52:27;45.40;;;19.05;;
72584;SDS011;60618;40.084;32.908;2022-12-07T13:54:56;218.95;;;45.35;;
72584;SDS011;60618;40.084;32.908;2022-12-07T13:57:26;124.97;;;48.35;;
72584;SDS011;60618;40.084;32.908;2022-12-07T13:59:55;56.70;;;24.47;;
72584;SDS011;60618;40.084;32.908;2022-12-07T14:02:26;63.00;;;26.23;;
72584;SDS011;60618;40.084;32.908;2022-12-07T14:10:31;34.17;;;16.92;;
72584;SDS011;60618;40.084;32.908;2022-12-07T14:13:00;33.87;;;16.67;;
72584;SDS011;60618;40.084;32.908;2022-12-07T14:15:49;30.70;;;15.90;;
72584;SDS011;60618;40.084;32.908;2022-12-07T14:18:24;27.33;;;12.85;;
72584;SDS011;60618;40.084;32.908;2022-12-07T14:23:37;27.33;;;12.18;;
72584;SDS011;60618;40.084;32.908;2022-12-07T14:26:12;25.60;;;11.63;;
72584;SDS011;60618;40.084;32.908;2022-12-07T14:28:42;26.25;;;13.25;;
72584;SDS011;60618;40.084;32.908;2022-12-07T14:31:14;25.48;;;13.40;;
72584;SDS011;60618;40.084;32.908;2022-12-07T14:33:58;31.95;;;14.13;;
72584;SDS011;60618;40.084;32.908;2022-12-07T14:36:25;36.03;;;14.85;;
72584;SDS011;60618;40.084;32.908;2022-12-07T14:38:52;27.77;;;13.83;;
72584;SDS011;60618;40.084;32.908;2022-12-07T14:41:19;32.78;;;15.35;;
72584;SDS011;60618;40.084;32.908;2022-12-07T14:43:49;29.75;;;14.93;;
72584;SDS011;60618;40.084;32.908;2022-12-07T14:46:36;27.92;;;13.30;;
72584;SDS011;60618;40.084;32.908;2022-12-07T14:49:03;43.53;;;13.70;;
72584;SDS011;60618;40.084;32.908;2022-12-07T14:51:50;34.73;;;14.93;;
72584;SDS011;60618;40.084;32.908;2022-12-07T14:54:37;31.45;;;14.25;;
72584;SDS011;60618;40.084;32.908;2022-12-07T14:57:04;30.40;;;14.23;;
72584;SDS011;60618;40.084;32.908;2022-12-07T14:59:34;28.83;;;15.43;;
72584;SDS011;60618;40.084;32.908;2022-12-07T15:02:08;40.13;;;17.35;;
72584;SDS011;60618;40.084;32.908;2022-12-07T15:04:37;44.13;;;19.50;;
72584;SDS011;60618;40.084;32.908;2022-12-07T15:07:05;38.70;;;17.05;;
72584;SDS011;60618;40.084;32.908;2022-12-07T15:09:35;42.38;;;15.85;;
72584;SDS011;60618;40.084;32.908;2022-12-07T15:12:02;34.10;;;14.48;;
72584;SDS011;60618;40.084;32.908;2022-12-07T15:14:29;29.45;;;14.00;;
72584;SDS011;60618;40.084;32.908;2022-12-07T15:16:56;29.53;;;14.93;;
72584;SDS011;60618;40.084;32.908;2022-12-07T15:19:43;33.08;;;16.65;;
72584;SDS011;60618;40.084;32.908;2022-12-07T15:22:10;33.22;;;17.83;;
72584;SDS011;60618;40.084;32.908;2022-12-07T15:24:37;29.75;;;14.10;;
72584;SDS011;60618;40.084;32.908;2022-12-07T15:27:04;37.35;;;17.58;;
72584;SDS011;60618;40.084;32.908;2022-12-07T15:29:32;37.27;;;18.73;;
72584;SDS011;60618;40.084;32.908;2022-12-07T15:31:59;44.17;;;21.55;;
72584;SDS011;60618;40.084;32.908;2022-12-07T15:34:26;44.33;;;20.45;;
72584;SDS011;60618;40.084;32.908;2022-12-07T15:36:58;34.53;;;16.75;;
72584;SDS011;60618;40.084;32.908;2022-12-07T15:39:25;44.90;;;21.08;;
72584;SDS011;60618;40.084;32.908;2022-12-07T15:41:52;53.07;;;23.63;;
72584;SDS011;60618;40.084;32.908;2022-12-07T15:44:19;32.80;;;15.15;;
72584;SDS011;60618;40.084;32.908;2022-12-07T15:46:46;30.15;;;14.88;;
72584;SDS011;60618;40.084;32.908;2022-12-07T15:49:14;35.95;;;17.02;;
72584;SDS011;60618;40.084;32.908;2022-12-07T15:51:43;36.65;;;18.20;;
72584;SDS011;60618;40.084;32.908;2022-12-07T15:54:29;34.37;;;16.83;;
72584;SDS011;60618;40.084;32.908;2022-12-07T15:56:56;39.78;;;18.70;;
72584;SDS011;60618;40.084;32.908;2022-12-07T15:59:23;32.95;;;15.50;;
72584;SDS011;60618;40.084;32.908;2022-12-07T16:01:53;31.25;;;14.80;;
72584;SDS011;60618;40.084;32.908;2022-12-07T16:04:20;32.90;;;16.60;;
72584;SDS011;60618;40.084;32.908;2022-12-07T16:06:47;29.87;;;14.20;;
72584;SDS011;60618;40.084;32.908;2022-12-07T16:09:14;31.08;;;13.48;;
72584;SDS011;60618;40.084;32.908;2022-12-07T16:11:40;28.70;;;13.80;;
72584;SDS011;60618;40.084;32.908;2022-12-07T16:14:07;30.15;;;14.27;;
72584;SDS011;60618;40.084;32.908;2022-12-07T16:16:34;32.78;;;15.88;;
72584;SDS011;60618;40.084;32.908;2022-12-07T16:19:01;32.53;;;15.97;;
72584;SDS011;60618;40.084;32.908;2022-12-07T16:21:28;29.77;;;14.35;;
72584;SDS011;60618;40.084;32.908;2022-12-07T16:23:57;32.28;;;15.90;;
72584;SDS011;60618;40.084;32.908;2022-12-07T16:26:24;32.20;;;15.20;;
72584;SDS011;60618;40.084;32.908;2022-12-07T16:28:51;33.10;;;16.38;;
72584;SDS011;60618;40.084;32.908;2022-12-07T16:31:20;33.13;;;15.33;;
72584;SDS011;60618;40.084;32.908;2022-12-07T16:33:49;29.73;;;15.75;;
72584;SDS011;60618;40.084;32.908;2022-12-07T16:36:16;37.63;;;17.45;;
72584;SDS011;60618;40.084;32.908;2022-12-07T16:39:04;34.78;;;16.52;;
72584;SDS011;60618;40.084;32.908;2022-12-07T16:41:32;33.72;;;15.20;;
72584;SDS011;60618;40.084;32.908;2022-12-07T16:44:02;34.27;;;15.63;;
72584;SDS011;60618;40.084;32.908;2022-12-07T16:46:34;35.17;;;15.98;;
72584;SDS011;60618;40.084;32.908;2022-12-07T16:49:03;32.92;;;15.43;;
72584;SDS011;60618;40.084;32.908;2022-12-07T16:51:31;31.55;;;14.82;;
72584;SDS011;60618;40.084;32.908;2022-12-07T16:53:58;30.33;;;14.77;;